createdAt,value
2023-05-21T00:02:35.000Z,100
2023-05-21T00:07:36.000Z,100
2023-05-21T00:12:35.000Z,100
2023-05-21T00:17:35.000Z,100
2023-05-21T00:22:36.000Z,100
2023-05-21T00:27:36.000Z,100
2023-05-21T00:32:35.000Z,100
2023-05-21T00:37:35.000Z,100
2023-05-21T00:42:36.000Z,100
2023-05-21T00:47:35.000Z,100
2023-05-21T00:52:36.000Z,100
2023-05-21T00:57:35.000Z,100
2023-05-21T01:02:36.000Z,100
2023-05-21T01:07:36.000Z,100
2023-05-21T01:12:36.000Z,100
2023-05-21T01:17:35.000Z,100
2023-05-21T01:22:36.000Z,100
2023-05-21T01:27:35.000Z,100
2023-05-21T01:32:36.000Z,100
2023-05-21T01:37:35.000Z,100
2023-05-21T01:42:36.000Z,100
2023-05-21T01:52:35.000Z,100
2023-05-21T01:57:35.000Z,100
2023-05-21T02:02:35.000Z,100
2023-05-21T02:07:36.000Z,100
2023-05-21T02:12:35.000Z,100
2023-05-21T02:17:36.000Z,100
2023-05-21T02:22:36.000Z,100
2023-05-21T02:27:36.000Z,100
2023-05-21T02:32:36.000Z,100
2023-05-21T02:37:35.000Z,100
2023-05-21T02:42:35.000Z,100
2023-05-21T02:52:35.000Z,100
2023-05-21T02:57:35.000Z,100
2023-05-21T03:02:36.000Z,100
2023-05-21T03:07:36.000Z,100
2023-05-21T03:12:36.000Z,100
2023-05-21T03:17:35.000Z,100
2023-05-21T03:22:36.000Z,100
2023-05-21T03:27:35.000Z,100
2023-05-21T03:32:36.000Z,100
2023-05-21T03:37:35.000Z,100
2023-05-21T03:42:36.000Z,100
2023-05-21T03:47:35.000Z,100
2023-05-21T03:52:36.000Z,100
2023-05-21T03:57:35.000Z,100
2023-05-21T04:02:36.000Z,100
2023-05-21T04:07:36.000Z,100
2023-05-21T04:12:36.000Z,100
2023-05-21T04:17:35.000Z,100
2023-05-21T04:22:36.000Z,100
2023-05-21T04:27:36.000Z,100
2023-05-21T04:32:35.000Z,100
2023-05-21T04:37:36.000Z,100
2023-05-21T04:42:35.000Z,100
2023-05-21T04:47:36.000Z,100
2023-05-21T04:52:35.000Z,100
2023-05-21T04:57:35.000Z,100
2023-05-21T05:02:37.000Z,100
2023-05-21T05:07:35.000Z,100
2023-05-21T05:12:36.000Z,100
2023-05-21T05:17:36.000Z,100
2023-05-21T05:22:36.000Z,100
2023-05-21T05:27:35.000Z,100
2023-05-21T05:32:36.000Z,100
2023-05-21T05:37:36.000Z,100
2023-05-21T05:42:36.000Z,100
2023-05-21T05:47:35.000Z,100
2023-05-21T05:52:35.000Z,100
2023-05-21T05:57:35.000Z,100
2023-05-21T06:02:36.000Z,100
2023-05-21T06:07:35.000Z,95.24
2023-05-21T06:12:35.000Z,91.96
2023-05-21T06:17:36.000Z,100
2023-05-21T06:22:35.000Z,100
2023-05-21T06:27:36.000Z,100
2023-05-21T06:32:36.000Z,100
2023-05-21T06:37:36.000Z,99.6
2023-05-21T06:42:36.000Z,88.15
2023-05-21T06:47:36.000Z,70.81
2023-05-21T06:52:36.000Z,71.64
2023-05-21T06:57:35.000Z,71.64
2023-05-21T07:02:36.000Z,73.65
2023-05-21T07:07:36.000Z,66.32
2023-05-21T07:12:35.000Z,59.03
2023-05-21T07:17:35.000Z,44.63
2023-05-21T07:22:38.000Z,44.41
2023-05-21T07:27:36.000Z,52.84
2023-05-21T07:32:35.000Z,64.12
2023-05-21T07:37:35.000Z,72.31
2023-05-21T07:42:35.000Z,75.71
2023-05-21T07:47:36.000Z,79.16
2023-05-21T07:52:35.000Z,76.96
2023-05-21T07:57:36.000Z,77.78
2023-05-21T08:02:36.000Z,77.78
2023-05-21T08:07:35.000Z,60.77
2023-05-21T08:12:35.000Z,58.54
2023-05-21T08:17:36.000Z,54.69
2023-05-21T08:22:36.000Z,50.51
2023-05-21T08:27:35.000Z,48.54
2023-05-21T08:32:35.000Z,48
2023-05-21T08:37:36.000Z,41.41
2023-05-21T08:42:46.000Z,34.64
2023-05-21T08:47:35.000Z,31.08
2023-05-21T08:52:36.000Z,31.71
2023-05-21T08:57:36.000Z,32.63
2023-05-21T09:02:36.000Z,36.28
2023-05-21T09:07:36.000Z,40
2023-05-21T09:12:35.000Z,43.42
2023-05-21T09:17:36.000Z,43.42
2023-05-21T09:22:36.000Z,45.88
2023-05-21T09:27:36.000Z,46.28
2023-05-21T09:32:36.000Z,47.31
2023-05-21T09:37:37.000Z,50.12
2023-05-21T09:42:35.000Z,54.28
2023-05-21T09:47:36.000Z,54.05
2023-05-21T09:52:36.000Z,54.38
2023-05-21T09:57:35.000Z,56.87
